sensor_id;sensor_type;location;lat;lon;timestamp;P1;durP1;ratioP1;P2;durP2;ratioP2
38911;SDS011;28444;48.056;14.408;2023-03-23T00:01:32;13.32;;;6.50;;
38911;SDS011;28444;48.056;14.408;2023-03-23T00:04:02;11.70;;;6.43;;
38911;SDS011;28444;48.056;14.408;2023-03-23T00:06:28;10.80;;;7.07;;
38911;SDS011;28444;48.056;14.408;2023-03-23T00:09:00;12.75;;;6.18;;
38911;SDS011;28444;48.056;14.408;2023-03-23T00:11:31;10.98;;;6.68;;
38911;SDS011;28444;48.056;14.408;2023-03-23T00:13:58;16.95;;;6.68;;
38911;SDS011;28444;48.056;14.408;2023-03-23T00:16:26;7.45;;;5.45;;
38911;SDS011;28444;48.056;14.408;2023-03-23T00:19:03;9.32;;;5.38;;
38911;SDS011;28444;48.056;14.408;2023-03-23T00:21:32;9.20;;;5.57;;
38911;SDS011;28444;48.056;14.408;2023-03-23T00:24:00;11.15;;;5.13;;
38911;SDS011;28444;48.056;14.408;2023-03-23T00:26:34;8.32;;;5.28;;
38911;SDS011;28444;48.056;14.408;2023-03-23T00:29:01;12.50;;;6.18;;
38911;SDS011;28444;48.056;14.408;2023-03-23T00:31:29;7.30;;;4.35;;
38911;SDS011;28444;48.056;14.408;2023-03-23T00:34:00;10.38;;;6.20;;
38911;SDS011;28444;48.056;14.408;2023-03-23T00:36:29;11.85;;;5.45;;
38911;SDS011;28444;48.056;14.408;2023-03-23T00:38:56;13.25;;;6.10;;
38911;SDS011;28444;48.056;14.408;2023-03-23T00:41:26;8.93;;;5.72;;
38911;SDS011;28444;48.056;14.408;2023-03-23T00:43:54;7.13;;;4.70;;
38911;SDS011;28444;48.056;14.408;2023-03-23T00:46:21;6.97;;;5.22;;
38911;SDS011;28444;48.056;14.408;2023-03-23T00:48:47;10.45;;;4.97;;
38911;SDS011;28444;48.056;14.408;2023-03-23T00:51:15;13.88;;;5.85;;
38911;SDS011;28444;48.056;14.408;2023-03-23T00:53:42;12.70;;;5.35;;
38911;SDS011;28444;48.056;14.408;2023-03-23T00:56:08;7.95;;;5.35;;
38911;SDS011;28444;48.056;14.408;2023-03-23T00:58:34;17.35;;;5.45;;
38911;SDS011;28444;48.056;14.408;2023-03-23T01:01:00;12.27;;;6.10;;
38911;SDS011;28444;48.056;14.408;2023-03-23T01:03:26;12.30;;;5.20;;
38911;SDS011;28444;48.056;14.408;2023-03-23T01:05:53;9.15;;;5.15;;
38911;SDS011;28444;48.056;14.408;2023-03-23T01:08:20;9.05;;;5.30;;
38911;SDS011;28444;48.056;14.408;2023-03-23T01:10:46;8.93;;;5.45;;
38911;SDS011;28444;48.056;14.408;2023-03-23T01:13:13;13.85;;;6.18;;
38911;SDS011;28444;48.056;14.408;2023-03-23T01:15:39;9.77;;;5.82;;
38911;SDS011;28444;48.056;14.408;2023-03-23T01:18:05;11.38;;;5.25;;
38911;SDS011;28444;48.056;14.408;2023-03-23T01:20:31;10.32;;;5.05;;
38911;SDS011;28444;48.056;14.408;2023-03-23T01:22:57;6.88;;;4.30;;
38911;SDS011;28444;48.056;14.408;2023-03-23T01:25:29;11.88;;;5.35;;
38911;SDS011;28444;48.056;14.408;2023-03-23T01:27:56;8.95;;;5.63;;
38911;SDS011;28444;48.056;14.408;2023-03-23T01:30:23;6.55;;;4.72;;
38911;SDS011;28444;48.056;14.408;2023-03-23T01:32:49;10.00;;;4.78;;
38911;SDS011;28444;48.056;14.408;2023-03-23T01:35:15;9.75;;;4.63;;
38911;SDS011;28444;48.056;14.408;2023-03-23T01:37:41;14.30;;;6.07;;
38911;SDS011;28444;48.056;14.408;2023-03-23T01:40:07;11.85;;;4.97;;
38911;SDS011;28444;48.056;14.408;2023-03-23T01:42:35;11.05;;;4.80;;
38911;SDS011;28444;48.056;14.408;2023-03-23T01:47:56;6.45;;;4.57;;
38911;SDS011;28444;48.056;14.408;2023-03-23T01:50:26;11.93;;;5.15;;
38911;SDS011;28444;48.056;14.408;2023-03-23T01:52:55;7.35;;;4.88;;
38911;SDS011;28444;48.056;14.408;2023-03-23T01:55:22;11.60;;;6.13;;
38911;SDS011;28444;48.056;14.408;2023-03-23T01:57:52;9.10;;;4.75;;
38911;SDS011;28444;48.056;14.408;2023-03-23T02:00:20;8.90;;;5.03;;
38911;SDS011;28444;48.056;14.408;2023-03-23T02:02:47;8.77;;;4.90;;
38911;SDS011;28444;48.056;14.408;2023-03-23T02:05:19;10.65;;;5.43;;
38911;SDS011;28444;48.056;14.408;2023-03-23T02:10:28;12.93;;;5.47;;
38911;SDS011;28444;48.056;14.408;2023-03-23T02:12:55;9.93;;;5.45;;
38911;SDS011;28444;48.056;14.408;2023-03-23T02:15:20;11.00;;;5.03;;
38911;SDS011;28444;48.056;14.408;2023-03-23T02:18:51;7.57;;;5.05;;
38911;SDS011;28444;48.056;14.408;2023-03-23T02:21:09;7.00;;;4.57;;
38911;SDS011;28444;48.056;14.408;2023-03-23T02:27:01;6.80;;;5.13;;
38911;SDS011;28444;48.056;14.408;2023-03-23T02:29:54;11.50;;;5.40;;
38911;SDS011;28444;48.056;14.408;2023-03-23T02:32:51;8.77;;;4.95;;
38911;SDS011;28444;48.056;14.408;2023-03-23T02:35:30;8.90;;;4.60;;
38911;SDS011;28444;48.056;14.408;2023-03-23T02:38:16;9.70;;;4.68;;
38911;SDS011;28444;48.056;14.408;2023-03-23T02:40:46;8.45;;;4.97;;
38911;SDS011;28444;48.056;14.408;2023-03-23T02:43:15;7.85;;;4.50;;
38911;SDS011;28444;48.056;14.408;2023-03-23T02:45:44;11.73;;;5.45;;
38911;SDS011;28444;48.056;14.408;2023-03-23T02:48:10;8.02;;;5.07;;
38911;SDS011;28444;48.056;14.408;2023-03-23T02:50:42;6.95;;;4.50;;
38911;SDS011;28444;48.056;14.408;2023-03-23T02:53:11;12.13;;;4.57;;
38911;SDS011;28444;48.056;14.408;2023-03-23T02:55:41;10.15;;;4.53;;
38911;SDS011;28444;48.056;14.408;2023-03-23T02:58:09;8.10;;;4.28;;
38911;SDS011;28444;48.056;14.408;2023-03-23T03:00:38;10.23;;;5.78;;
38911;SDS011;28444;48.056;14.408;2023-03-23T03:03:04;13.43;;;4.90;;
38911;SDS011;28444;48.056;14.408;2023-03-23T03:08:57;13.52;;;4.88;;
38911;SDS011;28444;48.056;14.408;2023-03-23T03:11:51;15.55;;;5.13;;
38911;SDS011;28444;48.056;14.408;2023-03-23T03:14:31;7.93;;;5.25;;
38911;SDS011;28444;48.056;14.408;2023-03-23T03:17:07;8.93;;;5.07;;
38911;SDS011;28444;48.056;14.408;2023-03-23T03:19:45;9.40;;;5.35;;
38911;SDS011;28444;48.056;14.408;2023-03-23T03:22:14;9.23;;;4.45;;
38911;SDS011;28444;48.056;14.408;2023-03-23T03:24:41;6.78;;;4.78;;
38911;SDS011;28444;48.056;14.408;2023-03-23T03:27:16;9.05;;;4.70;;
38911;SDS011;28444;48.056;14.408;2023-03-23T03:29:46;7.45;;;4.50;;
38911;SDS011;28444;48.056;14.408;2023-03-23T03:32:17;7.53;;;4.35;;
38911;SDS011;28444;48.056;14.408;2023-03-23T03:34:48;7.53;;;4.13;;
38911;SDS011;28444;48.056;14.408;2023-03-23T03:37:15;6.57;;;4.18;;
38911;SDS011;28444;48.056;14.408;2023-03-23T03:39:42;10.52;;;4.25;;
38911;SDS011;28444;48.056;14.408;2023-03-23T03:42:07;6.63;;;4.30;;
38911;SDS011;28444;48.056;14.408;2023-03-23T03:44:33;8.07;;;4.63;;
38911;SDS011;28444;48.056;14.408;2023-03-23T03:46:59;340.35;;;209.60;;
38911;SDS011;28444;48.056;14.408;2023-03-23T03:49:25;181.13;;;127.82;;
38911;SDS011;28444;48.056;14.408;2023-03-23T03:51:51;75.13;;;52.55;;
38911;SDS011;28444;48.056;14.408;2023-03-23T03:54:17;48.13;;;33.83;;
38911;SDS011;28444;48.056;14.408;2023-03-23T03:56:42;23.02;;;16.05;;
38911;SDS011;28444;48.056;14.408;2023-03-23T03:59:09;17.17;;;9.77;;
38911;SDS011;28444;48.056;14.408;2023-03-23T04:01:35;13.07;;;8.13;;
38911;SDS011;28444;48.056;14.408;2023-03-23T04:04:02;10.65;;;6.75;;
38911;SDS011;28444;48.056;14.408;2023-03-23T04:06:29;11.82;;;6.80;;
38911;SDS011;28444;48.056;14.408;2023-03-23T04:08:55;11.23;;;6.22;;
38911;SDS011;28444;48.056;14.408;2023-03-23T04:11:22;10.60;;;6.78;;
38911;SDS011;28444;48.056;14.408;2023-03-23T04:13:47;10.68;;;6.28;;
38911;SDS011;28444;48.056;14.408;2023-03-23T04:16:13;10.50;;;6.47;;
38911;SDS011;28444;48.056;14.408;2023-03-23T04:18:38;12.25;;;5.47;;
38911;SDS011;28444;48.056;14.408;2023-03-23T04:21:04;7.43;;;5.07;;
38911;SDS011;28444;48.056;14.408;2023-03-23T04:23:33;12.15;;;4.72;;
38911;SDS011;28444;48.056;14.408;2023-03-23T04:26:00;9.18;;;4.82;;
38911;SDS011;28444;48.056;14.408;2023-03-23T04:28:28;11.63;;;4.70;;
38911;SDS011;28444;48.056;14.408;2023-03-23T04:30:54;15.50;;;5.82;;
38911;SDS011;28444;48.056;14.408;2023-03-23T04:33:25;12.43;;;5.53;;
38911;SDS011;28444;48.056;14.408;2023-03-23T04:35:52;12.52;;;5.30;;
38911;SDS011;28444;48.056;14.408;2023-03-23T04:38:19;19.10;;;5.80;;
38911;SDS011;28444;48.056;14.408;2023-03-23T04:40:47;9.57;;;4.80;;
38911;SDS011;28444;48.056;14.408;2023-03-23T04:43:16;9.75;;;5.32;;
38911;SDS011;28444;48.056;14.408;2023-03-23T04:45:46;7.97;;;4.75;;
38911;SDS011;28444;48.056;14.408;2023-03-23T04:48:21;13.07;;;5.30;;
38911;SDS011;28444;48.056;14.408;2023-03-23T04:50:48;13.88;;;5.38;;
38911;SDS011;28444;48.056;14.408;2023-03-23T04:53:16;24.95;;;18.40;;
38911;SDS011;28444;48.056;14.408;2023-03-23T04:55:42;16.83;;;9.25;;
38911;SDS011;28444;48.056;14.408;2023-03-23T04:58:08;11.05;;;7.22;;
38911;SDS011;28444;48.056;14.408;2023-03-23T05:00:35;8.90;;;5.88;;
38911;SDS011;28444;48.056;14.408;2023-03-23T05:03:00;17.38;;;7.70;;
38911;SDS011;28444;48.056;14.408;2023-03-23T05:05:26;7.45;;;5.20;;
38911;SDS011;28444;48.056;14.408;2023-03-23T05:07:54;8.60;;;5.22;;
38911;SDS011;28444;48.056;14.408;2023-03-23T05:10:20;15.18;;;5.90;;
38911;SDS011;28444;48.056;14.408;2023-03-23T05:12:46;7.03;;;4.90;;
38911;SDS011;28444;48.056;14.408;2023-03-23T05:15:13;9.00;;;5.15;;
38911;SDS011;28444;48.056;14.408;2023-03-23T05:17:40;14.52;;;5.70;;
38911;SDS011;28444;48.056;14.408;2023-03-23T05:20:10;30.85;;;12.50;;
38911;SDS011;28444;48.056;14.408;2023-03-23T05:22:38;53.50;;;20.80;;
38911;SDS011;28444;48.056;14.408;2023-03-23T05:25:04;20.35;;;10.38;;
38911;SDS011;28444;48.056;14.408;2023-03-23T05:27:34;18.48;;;7.50;;
38911;SDS011;28444;48.056;14.408;2023-03-23T05:30:00;14.13;;;7.63;;
38911;SDS011;28444;48.056;14.408;2023-03-23T05:32:26;18.02;;;6.95;;
38911;SDS011;28444;48.056;14.408;2023-03-23T05:34:59;10.82;;;5.82;;
38911;SDS011;28444;48.056;14.408;2023-03-23T05:37:26;7.60;;;5.30;;
38911;SDS011;28444;48.056;14.408;2023-03-23T05:39:57;13.10;;;5.32;;
38911;SDS011;28444;48.056;14.408;2023-03-23T05:42:26;10.40;;;5.18;;
38911;SDS011;28444;48.056;14.408;2023-03-23T05:44:52;8.07;;;5.05;;
38911;SDS011;28444;48.056;14.408;2023-03-23T05:47:18;11.55;;;5.53;;
38911;SDS011;28444;48.056;14.408;2023-03-23T05:49:43;9.27;;;4.88;;
38911;SDS011;28444;48.056;14.408;2023-03-23T05:52:09;7.70;;;4.90;;
38911;SDS011;28444;48.056;14.408;2023-03-23T05:54:34;7.53;;;4.63;;
38911;SDS011;28444;48.056;14.408;2023-03-23T05:57:00;7.28;;;4.97;;
38911;SDS011;28444;48.056;14.408;2023-03-23T05:59:26;12.45;;;6.57;;
38911;SDS011;28444;48.056;14.408;2023-03-23T06:01:51;34.25;;;9.57;;
38911;SDS011;28444;48.056;14.408;2023-03-23T06:04:20;22.08;;;8.38;;
38911;SDS011;28444;48.056;14.408;2023-03-23T06:06:50;14.52;;;6.20;;
38911;SDS011;28444;48.056;14.408;2023-03-23T06:09:19;17.88;;;6.38;;
38911;SDS011;28444;48.056;14.408;2023-03-23T06:11:44;14.15;;;5.05;;
38911;SDS011;28444;48.056;14.408;2023-03-23T06:14:10;22.73;;;18.20;;
38911;SDS011;28444;48.056;14.408;2023-03-23T06:16:36;22.30;;;20.15;;
38911;SDS011;28444;48.056;14.408;2023-03-23T06:19:02;12.70;;;9.85;;
38911;SDS011;28444;48.056;14.408;2023-03-23T06:21:29;7.60;;;5.35;;
38911;SDS011;28444;48.056;14.408;2023-03-23T06:23:55;9.35;;;5.72;;
38911;SDS011;28444;48.056;14.408;2023-03-23T06:26:21;15.00;;;11.20;;
38911;SDS011;28444;48.056;14.408;2023-03-23T06:28:50;9.95;;;8.40;;
38911;SDS011;28444;48.056;14.408;2023-03-23T06:31:18;12.63;;;8.68;;
38911;SDS011;28444;48.056;14.408;2023-03-23T06:33:45;14.48;;;6.07;;
38911;SDS011;28444;48.056;14.408;2023-03-23T06:36:13;10.55;;;5.88;;
38911;SDS011;28444;48.056;14.408;2023-03-23T06:38:39;11.07;;;5.68;;
38911;SDS011;28444;48.056;14.408;2023-03-23T06:41:04;12.15;;;5.15;;
38911;SDS011;28444;48.056;14.408;2023-03-23T06:43:30;8.88;;;5.75;;
38911;SDS011;28444;48.056;14.408;2023-03-23T06:45:58;11.50;;;5.55;;
38911;SDS011;28444;48.056;14.408;2023-03-23T06:48:24;12.88;;;4.90;;
38911;SDS011;28444;48.056;14.408;2023-03-23T06:50:50;8.80;;;4.47;;
38911;SDS011;28444;48.056;14.408;2023-03-23T06:53:16;7.25;;;5.20;;
38911;SDS011;28444;48.056;14.408;2023-03-23T06:55:43;8.00;;;5.18;;
38911;SDS011;28444;48.056;14.408;2023-03-23T06:58:09;10.57;;;5.78;;
38911;SDS011;28444;48.056;14.408;2023-03-23T07:00:35;7.93;;;4.32;;
38911;SDS011;28444;48.056;14.408;2023-03-23T07:03:01;7.00;;;4.38;;
38911;SDS011;28444;48.056;14.408;2023-03-23T07:05:26;9.43;;;4.43;;
38911;SDS011;28444;48.056;14.408;2023-03-23T07:07:52;13.02;;;5.03;;
38911;SDS011;28444;48.056;14.408;2023-03-23T07:10:18;9.07;;;4.78;;
38911;SDS011;28444;48.056;14.408;2023-03-23T07:12:44;7.22;;;4.93;;
38911;SDS011;28444;48.056;14.408;2023-03-23T07:15:10;6.38;;;4.63;;
38911;SDS011;28444;48.056;14.408;2023-03-23T07:17:36;10.45;;;5.28;;
38911;SDS011;28444;48.056;14.408;2023-03-23T07:20:03;15.50;;;4.78;;
38911;SDS011;28444;48.056;14.408;2023-03-23T07:22:30;8.75;;;4.78;;
38911;SDS011;28444;48.056;14.408;2023-03-23T07:24:55;14.02;;;4.93;;
38911;SDS011;28444;48.056;14.408;2023-03-23T07:27:21;10.45;;;4.28;;
38911;SDS011;28444;48.056;14.408;2023-03-23T07:29:47;14.88;;;5.25;;
38911;SDS011;28444;48.056;14.408;2023-03-23T07:32:12;9.15;;;4.65;;
38911;SDS011;28444;48.056;14.408;2023-03-23T07:34:38;104.65;;;51.88;;
38911;SDS011;28444;48.056;14.408;2023-03-23T07:37:04;382.58;;;183.45;;
38911;SDS011;28444;48.056;14.408;2023-03-23T07:39:30;146.43;;;73.75;;
38911;SDS011;28444;48.056;14.408;2023-03-23T07:41:55;30.58;;;15.85;;
38911;SDS011;28444;48.056;14.408;2023-03-23T07:44:22;534.60;;;297.40;;
38911;SDS011;28444;48.056;14.408;2023-03-23T07:46:47;406.10;;;197.85;;
38911;SDS011;28444;48.056;14.408;2023-03-23T07:49:13;546.38;;;299.67;;
38911;SDS011;28444;48.056;14.408;2023-03-23T07:51:42;429.55;;;207.07;;
38911;SDS011;28444;48.056;14.408;2023-03-23T07:54:08;325.60;;;161.82;;
38911;SDS011;28444;48.056;14.408;2023-03-23T07:56:34;238.82;;;127.00;;
38911;SDS011;28444;48.056;14.408;2023-03-23T07:59:01;601.97;;;362.08;;
38911;SDS011;28444;48.056;14.408;2023-03-23T08:01:28;410.92;;;208.05;;
38911;SDS011;28444;48.056;14.408;2023-03-23T08:03:53;191.50;;;91.90;;
38911;SDS011;28444;48.056;14.408;2023-03-23T08:06:21;740.17;;;390.20;;
38911;SDS011;28444;48.056;14.408;2023-03-23T08:08:48;547.03;;;278.63;;
38911;SDS011;28444;48.056;14.408;2023-03-23T08:11:14;390.83;;;167.27;;
38911;SDS011;28444;48.056;14.408;2023-03-23T08:13:41;192.52;;;106.47;;
38911;SDS011;28444;48.056;14.408;2023-03-23T08:16:07;131.55;;;103.63;;
38911;SDS011;28444;48.056;14.408;2023-03-23T08:18:34;43.80;;;34.60;;
38911;SDS011;28444;48.056;14.408;2023-03-23T08:21:00;39.83;;;31.92;;
38911;SDS011;28444;48.056;14.408;2023-03-23T08:23:26;25.92;;;21.42;;
38911;SDS011;28444;48.056;14.408;2023-03-23T08:25:51;14.07;;;11.95;;
38911;SDS011;28444;48.056;14.408;2023-03-23T08:28:18;14.70;;;12.90;;
38911;SDS011;28444;48.056;14.408;2023-03-23T08:30:44;11.32;;;8.82;;
38911;SDS011;28444;48.056;14.408;2023-03-23T08:33:10;10.50;;;7.00;;
38911;SDS011;28444;48.056;14.408;2023-03-23T08:35:36;16.42;;;8.13;;
38911;SDS011;28444;48.056;14.408;2023-03-23T08:38:01;9.75;;;7.25;;
38911;SDS011;28444;48.056;14.408;2023-03-23T08:40:28;7.82;;;5.82;;
38911;SDS011;28444;48.056;14.408;2023-03-23T08:42:57;9.10;;;5.25;;
38911;SDS011;28444;48.056;14.408;2023-03-23T08:45:24;12.45;;;5.53;;
38911;SDS011;28444;48.056;14.408;2023-03-23T08:47:50;8.18;;;5.70;;
38911;SDS011;28444;48.056;14.408;2023-03-23T08:50:19;9.20;;;5.78;;
38911;SDS011;28444;48.056;14.408;2023-03-23T08:52:47;10.55;;;6.20;;
38911;SDS011;28444;48.056;14.408;2023-03-23T08:55:14;11.55;;;5.68;;
38911;SDS011;28444;48.056;14.408;2023-03-23T08:57:40;11.63;;;6.72;;
38911;SDS011;28444;48.056;14.408;2023-03-23T09:00:08;10.85;;;6.47;;
38911;SDS011;28444;48.056;14.408;2023-03-23T09:02:46;9.90;;;6.05;;
38911;SDS011;28444;48.056;14.408;2023-03-23T09:05:14;10.88;;;6.68;;
38911;SDS011;28444;48.056;14.408;2023-03-23T09:07:42;9.50;;;6.57;;
38911;SDS011;28444;48.056;14.408;2023-03-23T09:10:11;13.18;;;6.25;;
38911;SDS011;28444;48.056;14.408;2023-03-23T09:12:38;12.40;;;6.47;;
38911;SDS011;28444;48.056;14.408;2023-03-23T09:15:05;11.85;;;7.60;;
38911;SDS011;28444;48.056;14.408;2023-03-23T09:17:36;19.40;;;7.28;;
38911;SDS011;28444;48.056;14.408;2023-03-23T09:20:07;16.60;;;7.43;;
38911;SDS011;28444;48.056;14.408;2023-03-23T09:22:39;15.20;;;6.77;;
38911;SDS011;28444;48.056;14.408;2023-03-23T09:25:06;14.60;;;7.07;;
38911;SDS011;28444;48.056;14.408;2023-03-23T09:27:33;13.05;;;8.52;;
38911;SDS011;28444;48.056;14.408;2023-03-23T09:30:03;19.15;;;7.72;;
38911;SDS011;28444;48.056;14.408;2023-03-23T09:32:32;19.20;;;11.32;;
38911;SDS011;28444;48.056;14.408;2023-03-23T09:35:01;27.45;;;12.70;;
38911;SDS011;28444;48.056;14.408;2023-03-23T09:37:28;29.85;;;13.18;;
38911;SDS011;28444;48.056;14.408;2023-03-23T09:39:54;18.15;;;11.25;;
38911;SDS011;28444;48.056;14.408;2023-03-23T09:42:36;25.00;;;11.20;;
38911;SDS011;28444;48.056;14.408;2023-03-23T09:54:26;18.25;;;10.20;;
38911;SDS011;28444;48.056;14.408;2023-03-23T09:56:54;23.55;;;9.73;;
38911;SDS011;28444;48.056;14.408;2023-03-23T10:00:09;16.85;;;10.40;;
38911;SDS011;28444;48.056;14.408;2023-03-23T10:02:32;17.95;;;9.18;;
38911;SDS011;28444;48.056;14.408;2023-03-23T10:05:32;17.02;;;9.68;;
38911;SDS011;28444;48.056;14.408;2023-03-23T10:08:01;16.83;;;10.63;;
38911;SDS011;28444;48.056;14.408;2023-03-23T10:10:37;22.58;;;11.30;;
38911;SDS011;28444;48.056;14.408;2023-03-23T10:13:36;13.27;;;9.90;;
38911;SDS011;28444;48.056;14.408;2023-03-23T10:16:38;17.98;;;9.95;;
38911;SDS011;28444;48.056;14.408;2023-03-23T10:19:35;24.48;;;11.30;;
38911;SDS011;28444;48.056;14.408;2023-03-23T10:22:20;18.15;;;10.77;;
38911;SDS011;28444;48.056;14.408;2023-03-23T10:30:43;18.73;;;11.38;;
38911;SDS011;28444;48.056;14.408;2023-03-23T10:33:25;18.35;;;10.82;;
38911;SDS011;28444;48.056;14.408;2023-03-23T10:36:07;21.17;;;12.07;;
38911;SDS011;28444;48.056;14.408;2023-03-23T10:39:12;24.42;;;11.50;;
38911;SDS011;28444;48.056;14.408;2023-03-23T10:41:42;21.23;;;10.90;;
38911;SDS011;28444;48.056;14.408;2023-03-23T10:44:16;17.17;;;11.05;;
38911;SDS011;28444;48.056;14.408;2023-03-23T10:46:53;24.38;;;11.02;;
38911;SDS011;28444;48.056;14.408;2023-03-23T10:49:32;18.02;;;11.70;;
38911;SDS011;28444;48.056;14.408;2023-03-23T10:52:13;19.98;;;10.55;;
38911;SDS011;28444;48.056;14.408;2023-03-23T10:54:56;26.90;;;11.65;;
38911;SDS011;28444;48.056;14.408;2023-03-23T10:57:36;23.85;;;11.93;;
38911;SDS011;28444;48.056;14.408;2023-03-23T11:03:07;18.67;;;10.60;;
38911;SDS011;28444;48.056;14.408;2023-03-23T11:05:49;20.17;;;10.43;;
38911;SDS011;28444;48.056;14.408;2023-03-23T11:08:27;17.60;;;10.07;;
38911;SDS011;28444;48.056;14.408;2023-03-23T11:11:10;18.27;;;10.98;;
38911;SDS011;28444;48.056;14.408;2023-03-23T11:13:57;20.35;;;11.60;;
38911;SDS011;28444;48.056;14.408;2023-03-23T11:16:42;18.90;;;10.03;;
38911;SDS011;28444;48.056;14.408;2023-03-23T11:19:14;24.83;;;10.73;;
38911;SDS011;28444;48.056;14.408;2023-03-23T11:21:45;21.58;;;10.85;;
38911;SDS011;28444;48.056;14.408;2023-03-23T11:24:13;14.02;;;8.27;;
38911;SDS011;28444;48.056;14.408;2023-03-23T11:26:39;16.67;;;10.63;;
38911;SDS011;28444;48.056;14.408;2023-03-23T11:29:16;19.92;;;10.00;;
38911;SDS011;28444;48.056;14.408;2023-03-23T11:31:49;16.85;;;9.25;;
38911;SDS011;28444;48.056;14.408;2023-03-23T11:34:21;14.35;;;9.20;;
38911;SDS011;28444;48.056;14.408;2023-03-23T11:36:50;22.42;;;9.90;;
38911;SDS011;28444;48.056;14.408;2023-03-23T11:39:33;18.25;;;9.77;;
38911;SDS011;28444;48.056;14.408;2023-03-23T11:42:01;21.15;;;9.63;;
38911;SDS011;28444;48.056;14.408;2023-03-23T11:44:41;14.63;;;8.70;;
38911;SDS011;28444;48.056;14.408;2023-03-23T11:47:15;17.30;;;9.60;;
38911;SDS011;28444;48.056;14.408;2023-03-23T11:50:18;14.65;;;8.40;;
38911;SDS011;28444;48.056;14.408;2023-03-23T11:56:06;15.85;;;7.70;;
38911;SDS011;28444;48.056;14.408;2023-03-23T11:58:53;22.48;;;9.57;;
38911;SDS011;28444;48.056;14.408;2023-03-23T12:13:40;18.10;;;8.95;;
38911;SDS011;28444;48.056;14.408;2023-03-23T12:23:04;11.65;;;7.43;;
38911;SDS011;28444;48.056;14.408;2023-03-23T12:25:45;12.18;;;6.72;;
38911;SDS011;28444;48.056;14.408;2023-03-23T12:28:27;16.08;;;6.10;;
38911;SDS011;28444;48.056;14.408;2023-03-23T12:34:49;9.30;;;4.10;;
38911;SDS011;28444;48.056;14.408;2023-03-23T12:37:43;12.40;;;4.18;;
38911;SDS011;28444;48.056;14.408;2023-03-23T12:43:46;6.50;;;3.90;;
38911;SDS011;28444;48.056;14.408;2023-03-23T12:49:59;14.40;;;4.72;;
38911;SDS011;28444;48.056;14.408;2023-03-23T12:52:52;6.28;;;4.10;;
38911;SDS011;28444;48.056;14.408;2023-03-23T12:55:49;8.30;;;4.47;;
38911;SDS011;28444;48.056;14.408;2023-03-23T12:58:29;5.97;;;3.50;;
38911;SDS011;28444;48.056;14.408;2023-03-23T13:01:05;4.72;;;3.10;;
38911;SDS011;28444;48.056;14.408;2023-03-23T13:03:39;3.38;;;2.03;;
38911;SDS011;28444;48.056;14.408;2023-03-23T13:06:46;5.03;;;2.45;;
38911;SDS011;28444;48.056;14.408;2023-03-23T13:09:42;5.25;;;2.60;;
38911;SDS011;28444;48.056;14.408;2023-03-23T13:12:21;5.60;;;2.28;;
38911;SDS011;28444;48.056;14.408;2023-03-23T13:23:21;4.25;;;2.85;;
38911;SDS011;28444;48.056;14.408;2023-03-23T13:25:54;7.18;;;3.05;;
38911;SDS011;28444;48.056;14.408;2023-03-23T13:28:59;15.95;;;3.95;;
38911;SDS011;28444;48.056;14.408;2023-03-23T13:31:33;18.05;;;6.13;;
38911;SDS011;28444;48.056;14.408;2023-03-23T13:34:05;13.07;;;5.55;;
38911;SDS011;28444;48.056;14.408;2023-03-23T13:36:41;11.38;;;5.28;;
38911;SDS011;28444;48.056;14.408;2023-03-23T13:39:21;11.00;;;5.40;;
38911;SDS011;28444;48.056;14.408;2023-03-23T13:47:46;10.27;;;5.57;;
38911;SDS011;28444;48.056;14.408;2023-03-23T13:53:00;9.75;;;5.00;;
38911;SDS011;28444;48.056;14.408;2023-03-23T13:55:47;8.38;;;4.38;;
38911;SDS011;28444;48.056;14.408;2023-03-23T13:58:21;15.75;;;6.60;;
38911;SDS011;28444;48.056;14.408;2023-03-23T14:01:01;9.55;;;5.70;;
38911;SDS011;28444;48.056;14.408;2023-03-23T14:03:58;12.82;;;5.95;;
38911;SDS011;28444;48.056;14.408;2023-03-23T14:06:26;13.77;;;6.28;;
38911;SDS011;28444;48.056;14.408;2023-03-23T14:09:04;14.35;;;6.13;;
38911;SDS011;28444;48.056;14.408;2023-03-23T14:11:56;12.55;;;6.47;;
38911;SDS011;28444;48.056;14.408;2023-03-23T14:17:29;14.27;;;6.65;;
38911;SDS011;28444;48.056;14.408;2023-03-23T14:19:58;15.05;;;6.55;;
38911;SDS011;28444;48.056;14.408;2023-03-23T14:22:26;18.15;;;7.47;;
38911;SDS011;28444;48.056;14.408;2023-03-23T14:25:10;14.20;;;8.25;;
38911;SDS011;28444;48.056;14.408;2023-03-23T14:27:40;14.27;;;6.72;;
38911;SDS011;28444;48.056;14.408;2023-03-23T14:30:15;15.60;;;7.55;;
38911;SDS011;28444;48.056;14.408;2023-03-23T14:32:42;13.13;;;7.25;;
38911;SDS011;28444;48.056;14.408;2023-03-23T14:35:14;19.30;;;8.25;;
38911;SDS011;28444;48.056;14.408;2023-03-23T14:37:47;14.68;;;7.85;;
38911;SDS011;28444;48.056;14.408;2023-03-23T14:40:14;12.98;;;7.35;;
38911;SDS011;28444;48.056;14.408;2023-03-23T14:42:42;13.18;;;7.40;;
38911;SDS011;28444;48.056;14.408;2023-03-23T14:45:10;13.05;;;7.07;;
38911;SDS011;28444;48.056;14.408;2023-03-23T14:47:42;16.70;;;9.00;;
38911;SDS011;28444;48.056;14.408;2023-03-23T14:53:21;23.50;;;8.38;;
38911;SDS011;28444;48.056;14.408;2023-03-23T14:55:55;14.30;;;8.10;;
38911;SDS011;28444;48.056;14.408;2023-03-23T14:58:22;14.13;;;8.00;;
38911;SDS011;28444;48.056;14.408;2023-03-23T15:00:53;15.30;;;7.78;;
38911;SDS011;28444;48.056;14.408;2023-03-23T15:03:24;11.63;;;6.75;;
38911;SDS011;28444;48.056;14.408;2023-03-23T15:05:55;16.75;;;8.48;;
38911;SDS011;28444;48.056;14.408;2023-03-23T15:08:25;17.35;;;8.45;;
38911;SDS011;28444;48.056;14.408;2023-03-23T15:11:04;21.85;;;7.32;;
38911;SDS011;28444;48.056;14.408;2023-03-23T15:13:36;14.63;;;7.60;;
38911;SDS011;28444;48.056;14.408;2023-03-23T15:16:11;16.30;;;7.05;;
38911;SDS011;28444;48.056;14.408;2023-03-23T15:18:51;15.27;;;7.93;;
38911;SDS011;28444;48.056;14.408;2023-03-23T15:21:27;14.95;;;7.25;;
38911;SDS011;28444;48.056;14.408;2023-03-23T15:24:26;15.52;;;6.65;;
38911;SDS011;28444;48.056;14.408;2023-03-23T15:29:31;23.67;;;8.90;;
38911;SDS011;28444;48.056;14.408;2023-03-23T15:31:57;14.10;;;7.18;;
38911;SDS011;28444;48.056;14.408;2023-03-23T15:34:30;18.00;;;6.38;;
38911;SDS011;28444;48.056;14.408;2023-03-23T15:37:02;16.08;;;7.55;;
38911;SDS011;28444;48.056;14.408;2023-03-23T15:39:30;15.75;;;7.85;;
38911;SDS011;28444;48.056;14.408;2023-03-23T15:41:57;20.77;;;7.03;;
38911;SDS011;28444;48.056;14.408;2023-03-23T15:47:16;21.98;;;8.90;;
38911;SDS011;28444;48.056;14.408;2023-03-23T15:49:45;14.15;;;6.78;;
38911;SDS011;28444;48.056;14.408;2023-03-23T15:52:12;15.88;;;6.85;;
38911;SDS011;28444;48.056;14.408;2023-03-23T15:54:45;14.57;;;7.13;;
38911;SDS011;28444;48.056;14.408;2023-03-23T15:57:12;22.13;;;8.32;;
38911;SDS011;28444;48.056;14.408;2023-03-23T15:59:37;18.23;;;6.90;;
38911;SDS011;28444;48.056;14.408;2023-03-23T16:02:04;14.32;;;7.18;;
38911;SDS011;28444;48.056;14.408;2023-03-23T16:04:31;16.75;;;6.65;;
38911;SDS011;28444;48.056;14.408;2023-03-23T16:06:58;17.42;;;7.20;;
38911;SDS011;28444;48.056;14.408;2023-03-23T16:09:26;15.30;;;7.57;;
38911;SDS011;28444;48.056;14.408;2023-03-23T16:11:52;18.70;;;7.57;;
38911;SDS011;28444;48.056;14.408;2023-03-23T16:14:19;13.65;;;7.75;;
38911;SDS011;28444;48.056;14.408;2023-03-23T16:16:47;15.35;;;7.80;;